sensor_id;sensor_type;location;lat;lon;timestamp;P1;durP1;ratioP1;P2;durP2;ratioP2
14096;SDS011;7125;48.106;11.544;2023-04-24T00:01:41;3.37;;;1.37;;
14096;SDS011;7125;48.106;11.544;2023-04-24T00:04:08;1.30;;;1.10;;
14096;SDS011;7125;48.106;11.544;2023-04-24T00:06:36;1.50;;;1.23;;
14096;SDS011;7125;48.106;11.544;2023-04-24T00:09:03;1.70;;;1.10;;
14096;SDS011;7125;48.106;11.544;2023-04-24T00:11:30;1.07;;;0.90;;
14096;SDS011;7125;48.106;11.544;2023-04-24T00:13:57;0.90;;;0.80;;
14096;SDS011;7125;48.106;11.544;2023-04-24T00:16:25;2.13;;;1.00;;
14096;SDS011;7125;48.106;11.544;2023-04-24T00:18:54;2.00;;;1.20;;
14096;SDS011;7125;48.106;11.544;2023-04-24T00:21:22;2.37;;;0.83;;
14096;SDS011;7125;48.106;11.544;2023-04-24T00:23:50;1.63;;;1.30;;
14096;SDS011;7125;48.106;11.544;2023-04-24T00:26:18;1.47;;;1.37;;
14096;SDS011;7125;48.106;11.544;2023-04-24T00:28:45;3.83;;;1.53;;
14096;SDS011;7125;48.106;11.544;2023-04-24T00:31:12;3.57;;;1.30;;
14096;SDS011;7125;48.106;11.544;2023-04-24T00:33:39;2.87;;;1.10;;
14096;SDS011;7125;48.106;11.544;2023-04-24T00:36:07;1.90;;;0.63;;
14096;SDS011;7125;48.106;11.544;2023-04-24T00:38:34;0.80;;;0.80;;
14096;SDS011;7125;48.106;11.544;2023-04-24T00:41:02;1.07;;;0.70;;
14096;SDS011;7125;48.106;11.544;2023-04-24T00:43:29;0.73;;;0.60;;
14096;SDS011;7125;48.106;11.544;2023-04-24T00:45:56;1.70;;;0.70;;
14096;SDS011;7125;48.106;11.544;2023-04-24T00:48:24;0.70;;;0.70;;
14096;SDS011;7125;48.106;11.544;2023-04-24T00:50:51;1.03;;;0.70;;
14096;SDS011;7125;48.106;11.544;2023-04-24T00:53:20;1.00;;;0.60;;
14096;SDS011;7125;48.106;11.544;2023-04-24T00:55:47;0.70;;;0.60;;
14096;SDS011;7125;48.106;11.544;2023-04-24T00:58:14;1.47;;;0.70;;
14096;SDS011;7125;48.106;11.544;2023-04-24T01:00:42;1.40;;;0.90;;
14096;SDS011;7125;48.106;11.544;2023-04-24T01:03:10;0.60;;;0.57;;
14096;SDS011;7125;48.106;11.544;2023-04-24T01:05:38;2.43;;;0.60;;
14096;SDS011;7125;48.106;11.544;2023-04-24T01:08:05;4.23;;;0.70;;
14096;SDS011;7125;48.106;11.544;2023-04-24T01:10:34;0.53;;;0.50;;
14096;SDS011;7125;48.106;11.544;2023-04-24T01:13:02;0.67;;;0.67;;
14096;SDS011;7125;48.106;11.544;2023-04-24T01:15:29;0.80;;;0.70;;
14096;SDS011;7125;48.106;11.544;2023-04-24T01:17:56;0.60;;;0.50;;
14096;SDS011;7125;48.106;11.544;2023-04-24T01:20:23;1.43;;;0.47;;
14096;SDS011;7125;48.106;11.544;2023-04-24T01:22:53;0.57;;;0.50;;
14096;SDS011;7125;48.106;11.544;2023-04-24T01:25:22;1.27;;;0.47;;
14096;SDS011;7125;48.106;11.544;2023-04-24T01:27:49;0.80;;;0.50;;
14096;SDS011;7125;48.106;11.544;2023-04-24T01:30:17;0.50;;;0.50;;
14096;SDS011;7125;48.106;11.544;2023-04-24T01:32:45;0.53;;;0.50;;
14096;SDS011;7125;48.106;11.544;2023-04-24T01:35:12;1.13;;;0.83;;
14096;SDS011;7125;48.106;11.544;2023-04-24T01:37:39;3.40;;;0.40;;
14096;SDS011;7125;48.106;11.544;2023-04-24T01:40:08;1.23;;;0.30;;
14096;SDS011;7125;48.106;11.544;2023-04-24T01:42:36;2.70;;;0.50;;
14096;SDS011;7125;48.106;11.544;2023-04-24T01:45:04;1.93;;;0.70;;
14096;SDS011;7125;48.106;11.544;2023-04-24T01:47:32;1.00;;;0.50;;
14096;SDS011;7125;48.106;11.544;2023-04-24T01:49:59;1.10;;;0.63;;
14096;SDS011;7125;48.106;11.544;2023-04-24T01:52:26;0.43;;;0.37;;
14096;SDS011;7125;48.106;11.544;2023-04-24T01:54:56;0.60;;;0.50;;
14096;SDS011;7125;48.106;11.544;2023-04-24T01:57:27;0.80;;;0.50;;
14096;SDS011;7125;48.106;11.544;2023-04-24T01:59:55;2.20;;;0.40;;
14096;SDS011;7125;48.106;11.544;2023-04-24T02:02:23;2.50;;;0.50;;
14096;SDS011;7125;48.106;11.544;2023-04-24T02:04:52;0.83;;;0.40;;
14096;SDS011;7125;48.106;11.544;2023-04-24T02:07:20;0.77;;;0.30;;
14096;SDS011;7125;48.106;11.544;2023-04-24T02:09:48;0.40;;;0.40;;
14096;SDS011;7125;48.106;11.544;2023-04-24T02:12:15;0.80;;;0.53;;
14096;SDS011;7125;48.106;11.544;2023-04-24T02:14:45;0.63;;;0.30;;
14096;SDS011;7125;48.106;11.544;2023-04-24T02:17:12;2.00;;;0.40;;
14096;SDS011;7125;48.106;11.544;2023-04-24T02:19:40;0.70;;;0.50;;
14096;SDS011;7125;48.106;11.544;2023-04-24T02:22:09;0.63;;;0.47;;
14096;SDS011;7125;48.106;11.544;2023-04-24T02:24:36;2.83;;;0.30;;
14096;SDS011;7125;48.106;11.544;2023-04-24T02:27:05;1.17;;;0.43;;
14096;SDS011;7125;48.106;11.544;2023-04-24T02:29:32;0.40;;;0.40;;
14096;SDS011;7125;48.106;11.544;2023-04-24T02:32:01;0.97;;;0.53;;
14096;SDS011;7125;48.106;11.544;2023-04-24T02:34:28;0.40;;;0.30;;
14096;SDS011;7125;48.106;11.544;2023-04-24T02:36:55;1.27;;;0.57;;
14096;SDS011;7125;48.106;11.544;2023-04-24T02:39:22;2.27;;;0.43;;
14096;SDS011;7125;48.106;11.544;2023-04-24T02:41:51;2.70;;;0.50;;
14096;SDS011;7125;48.106;11.544;2023-04-24T02:44:18;0.57;;;0.50;;
14096;SDS011;7125;48.106;11.544;2023-04-24T02:46:46;1.20;;;0.40;;
14096;SDS011;7125;48.106;11.544;2023-04-24T02:49:15;0.30;;;0.30;;
14096;SDS011;7125;48.106;11.544;2023-04-24T02:51:42;0.20;;;0.20;;
14096;SDS011;7125;48.106;11.544;2023-04-24T02:54:09;0.57;;;0.50;;
14096;SDS011;7125;48.106;11.544;2023-04-24T02:56:36;1.40;;;0.40;;
14096;SDS011;7125;48.106;11.544;2023-04-24T02:59:06;1.60;;;0.73;;
14096;SDS011;7125;48.106;11.544;2023-04-24T03:01:33;0.70;;;0.50;;
14096;SDS011;7125;48.106;11.544;2023-04-24T03:04:00;1.90;;;0.30;;
14096;SDS011;7125;48.106;11.544;2023-04-24T03:06:29;0.37;;;0.33;;
14096;SDS011;7125;48.106;11.544;2023-04-24T03:08:58;1.00;;;0.60;;
14096;SDS011;7125;48.106;11.544;2023-04-24T03:11:25;0.67;;;0.40;;
14096;SDS011;7125;48.106;11.544;2023-04-24T03:13:52;1.20;;;0.50;;
14096;SDS011;7125;48.106;11.544;2023-04-24T03:16:19;0.50;;;0.43;;
14096;SDS011;7125;48.106;11.544;2023-04-24T03:18:46;0.40;;;0.40;;
14096;SDS011;7125;48.106;11.544;2023-04-24T03:21:15;0.30;;;0.30;;
14096;SDS011;7125;48.106;11.544;2023-04-24T03:23:44;0.30;;;0.30;;
14096;SDS011;7125;48.106;11.544;2023-04-24T03:26:11;1.70;;;0.50;;
14096;SDS011;7125;48.106;11.544;2023-04-24T03:28:48;1.70;;;0.43;;
14096;SDS011;7125;48.106;11.544;2023-04-24T03:31:16;0.40;;;0.40;;
14096;SDS011;7125;48.106;11.544;2023-04-24T03:33:44;0.90;;;0.40;;
14096;SDS011;7125;48.106;11.544;2023-04-24T03:36:12;0.77;;;0.47;;
14096;SDS011;7125;48.106;11.544;2023-04-24T03:38:40;0.50;;;0.50;;
14096;SDS011;7125;48.106;11.544;2023-04-24T03:41:23;1.43;;;0.60;;
14096;SDS011;7125;48.106;11.544;2023-04-24T03:44:13;1.47;;;0.50;;
14096;SDS011;7125;48.106;11.544;2023-04-24T03:46:40;0.97;;;0.60;;
14096;SDS011;7125;48.106;11.544;2023-04-24T03:49:08;1.83;;;0.80;;
14096;SDS011;7125;48.106;11.544;2023-04-24T03:51:39;0.93;;;0.83;;
14096;SDS011;7125;48.106;11.544;2023-04-24T03:54:14;2.00;;;0.50;;
14096;SDS011;7125;48.106;11.544;2023-04-24T03:56:42;2.40;;;0.60;;
14096;SDS011;7125;48.106;11.544;2023-04-24T03:59:10;0.47;;;0.40;;
14096;SDS011;7125;48.106;11.544;2023-04-24T04:01:38;0.57;;;0.47;;
14096;SDS011;7125;48.106;11.544;2023-04-24T04:04:12;2.10;;;1.10;;
14096;SDS011;7125;48.106;11.544;2023-04-24T04:06:54;2.57;;;0.70;;
14096;SDS011;7125;48.106;11.544;2023-04-24T04:09:23;1.60;;;0.30;;
14096;SDS011;7125;48.106;11.544;2023-04-24T04:11:51;0.67;;;0.67;;
14096;SDS011;7125;48.106;11.544;2023-04-24T04:14:19;0.80;;;0.60;;
14096;SDS011;7125;48.106;11.544;2023-04-24T04:16:47;1.63;;;0.90;;
14096;SDS011;7125;48.106;11.544;2023-04-24T04:19:14;3.20;;;0.80;;
14096;SDS011;7125;48.106;11.544;2023-04-24T04:21:41;1.27;;;0.77;;
14096;SDS011;7125;48.106;11.544;2023-04-24T04:24:32;2.30;;;0.80;;
14096;SDS011;7125;48.106;11.544;2023-04-24T04:27:04;0.93;;;0.73;;
14096;SDS011;7125;48.106;11.544;2023-04-24T04:29:38;1.43;;;1.33;;
14096;SDS011;7125;48.106;11.544;2023-04-24T04:32:08;2.50;;;0.70;;
14096;SDS011;7125;48.106;11.544;2023-04-24T04:34:35;0.90;;;0.40;;
14096;SDS011;7125;48.106;11.544;2023-04-24T04:37:06;1.37;;;0.80;;
14096;SDS011;7125;48.106;11.544;2023-04-24T04:39:53;0.73;;;0.40;;
14096;SDS011;7125;48.106;11.544;2023-04-24T04:42:25;1.33;;;0.80;;
14096;SDS011;7125;48.106;11.544;2023-04-24T04:44:53;1.07;;;0.90;;
14096;SDS011;7125;48.106;11.544;2023-04-24T04:47:27;2.47;;;0.80;;
14096;SDS011;7125;48.106;11.544;2023-04-24T04:49:58;0.90;;;0.60;;
14096;SDS011;7125;48.106;11.544;2023-04-24T04:52:26;1.03;;;0.67;;
14096;SDS011;7125;48.106;11.544;2023-04-24T04:55:02;1.37;;;0.73;;
14096;SDS011;7125;48.106;11.544;2023-04-24T04:57:51;1.07;;;0.60;;
14096;SDS011;7125;48.106;11.544;2023-04-24T05:00:18;1.60;;;0.60;;
14096;SDS011;7125;48.106;11.544;2023-04-24T05:02:50;0.80;;;0.57;;
14096;SDS011;7125;48.106;11.544;2023-04-24T05:05:17;0.77;;;0.53;;
14096;SDS011;7125;48.106;11.544;2023-04-24T05:07:45;0.57;;;0.50;;
14096;SDS011;7125;48.106;11.544;2023-04-24T05:10:12;0.70;;;0.33;;
14096;SDS011;7125;48.106;11.544;2023-04-24T05:12:39;3.30;;;0.50;;
14096;SDS011;7125;48.106;11.544;2023-04-24T05:15:09;0.60;;;0.60;;
14096;SDS011;7125;48.106;11.544;2023-04-24T05:17:36;6.20;;;0.80;;
14096;SDS011;7125;48.106;11.544;2023-04-24T05:20:06;2.20;;;0.50;;
14096;SDS011;7125;48.106;11.544;2023-04-24T05:22:34;0.97;;;0.40;;
14096;SDS011;7125;48.106;11.544;2023-04-24T05:25:02;1.43;;;0.70;;
14096;SDS011;7125;48.106;11.544;2023-04-24T05:27:36;0.30;;;0.30;;
14096;SDS011;7125;48.106;11.544;2023-04-24T05:30:11;0.83;;;0.63;;
14096;SDS011;7125;48.106;11.544;2023-04-24T05:32:39;0.93;;;0.40;;
14096;SDS011;7125;48.106;11.544;2023-04-24T05:35:07;1.37;;;0.53;;
14096;SDS011;7125;48.106;11.544;2023-04-24T05:37:35;0.80;;;0.80;;
14096;SDS011;7125;48.106;11.544;2023-04-24T05:40:02;4.47;;;1.00;;
14096;SDS011;7125;48.106;11.544;2023-04-24T05:42:30;0.80;;;0.50;;
14096;SDS011;7125;48.106;11.544;2023-04-24T05:44:59;0.60;;;0.60;;
14096;SDS011;7125;48.106;11.544;2023-04-24T05:47:29;1.03;;;1.03;;
14096;SDS011;7125;48.106;11.544;2023-04-24T05:49:57;0.73;;;0.40;;
14096;SDS011;7125;48.106;11.544;2023-04-24T05:52:24;2.73;;;1.23;;
14096;SDS011;7125;48.106;11.544;2023-04-24T05:54:52;3.63;;;0.70;;
14096;SDS011;7125;48.106;11.544;2023-04-24T05:57:23;0.70;;;0.50;;
14096;SDS011;7125;48.106;11.544;2023-04-24T05:59:53;0.70;;;0.40;;
14096;SDS011;7125;48.106;11.544;2023-04-24T06:02:21;3.93;;;0.60;;
14096;SDS011;7125;48.106;11.544;2023-04-24T06:04:50;1.90;;;0.80;;
14096;SDS011;7125;48.106;11.544;2023-04-24T06:07:17;1.23;;;1.13;;
14096;SDS011;7125;48.106;11.544;2023-04-24T06:09:46;1.77;;;0.60;;
14096;SDS011;7125;48.106;11.544;2023-04-24T06:12:14;0.50;;;0.50;;
14096;SDS011;7125;48.106;11.544;2023-04-24T06:17:38;1.80;;;0.90;;
14096;SDS011;7125;48.106;11.544;2023-04-24T06:20:07;2.40;;;1.10;;
14096;SDS011;7125;48.106;11.544;2023-04-24T06:22:36;0.93;;;0.80;;
14096;SDS011;7125;48.106;11.544;2023-04-24T06:25:05;0.47;;;0.40;;
14096;SDS011;7125;48.106;11.544;2023-04-24T06:27:33;1.93;;;1.60;;
14096;SDS011;7125;48.106;11.544;2023-04-24T06:30:01;1.10;;;0.40;;
14096;SDS011;7125;48.106;11.544;2023-04-24T06:32:28;1.30;;;0.50;;
14096;SDS011;7125;48.106;11.544;2023-04-24T06:34:58;0.70;;;0.70;;
14096;SDS011;7125;48.106;11.544;2023-04-24T06:37:31;0.37;;;0.37;;
14096;SDS011;7125;48.106;11.544;2023-04-24T06:39:59;1.57;;;0.40;;
14096;SDS011;7125;48.106;11.544;2023-04-24T06:42:27;2.37;;;0.40;;
14096;SDS011;7125;48.106;11.544;2023-04-24T06:44:54;1.50;;;0.87;;
14096;SDS011;7125;48.106;11.544;2023-04-24T06:47:22;2.73;;;0.40;;
14096;SDS011;7125;48.106;11.544;2023-04-24T06:49:50;0.60;;;0.57;;
14096;SDS011;7125;48.106;11.544;2023-04-24T06:52:17;0.70;;;0.30;;
14096;SDS011;7125;48.106;11.544;2023-04-24T06:54:46;0.30;;;0.30;;
14096;SDS011;7125;48.106;11.544;2023-04-24T06:57:13;0.30;;;0.23;;
14096;SDS011;7125;48.106;11.544;2023-04-24T06:59:41;0.63;;;0.33;;
14096;SDS011;7125;48.106;11.544;2023-04-24T07:02:08;2.57;;;0.40;;
14096;SDS011;7125;48.106;11.544;2023-04-24T07:04:35;0.60;;;0.40;;
14096;SDS011;7125;48.106;11.544;2023-04-24T07:07:02;1.03;;;0.50;;
14096;SDS011;7125;48.106;11.544;2023-04-24T07:09:29;0.63;;;0.60;;
14096;SDS011;7125;48.106;11.544;2023-04-24T07:11:58;0.60;;;0.40;;
14096;SDS011;7125;48.106;11.544;2023-04-24T07:14:25;0.87;;;0.30;;
14096;SDS011;7125;48.106;11.544;2023-04-24T07:16:52;0.40;;;0.20;;
14096;SDS011;7125;48.106;11.544;2023-04-24T07:19:19;0.67;;;0.20;;
14096;SDS011;7125;48.106;11.544;2023-04-24T07:21:46;0.73;;;0.30;;
14096;SDS011;7125;48.106;11.544;2023-04-24T07:24:13;0.10;;;0.10;;
14096;SDS011;7125;48.106;11.544;2023-04-24T07:26:40;0.90;;;0.40;;
14096;SDS011;7125;48.106;11.544;2023-04-24T07:29:09;1.83;;;0.50;;
14096;SDS011;7125;48.106;11.544;2023-04-24T07:31:36;0.37;;;0.37;;
14096;SDS011;7125;48.106;11.544;2023-04-24T07:34:03;2.20;;;0.30;;
14096;SDS011;7125;48.106;11.544;2023-04-24T07:36:30;1.97;;;0.20;;
14096;SDS011;7125;48.106;11.544;2023-04-24T07:38:57;0.33;;;0.30;;
14096;SDS011;7125;48.106;11.544;2023-04-24T07:41:24;2.57;;;0.53;;
14096;SDS011;7125;48.106;11.544;2023-04-24T07:43:52;1.20;;;0.20;;
14096;SDS011;7125;48.106;11.544;2023-04-24T07:46:21;0.77;;;0.40;;
14096;SDS011;7125;48.106;11.544;2023-04-24T07:48:49;0.33;;;0.33;;
14096;SDS011;7125;48.106;11.544;2023-04-24T07:51:16;0.63;;;0.23;;
14096;SDS011;7125;48.106;11.544;2023-04-24T07:53:43;0.43;;;0.30;;
14096;SDS011;7125;48.106;11.544;2023-04-24T07:56:11;0.20;;;0.10;;
14096;SDS011;7125;48.106;11.544;2023-04-24T07:58:38;1.80;;;0.40;;
14096;SDS011;7125;48.106;11.544;2023-04-24T08:01:06;2.67;;;0.40;;
14096;SDS011;7125;48.106;11.544;2023-04-24T08:03:34;1.47;;;0.40;;
14096;SDS011;7125;48.106;11.544;2023-04-24T08:06:01;1.07;;;0.40;;
14096;SDS011;7125;48.106;11.544;2023-04-24T08:08:28;1.17;;;0.30;;
14096;SDS011;7125;48.106;11.544;2023-04-24T08:10:55;0.20;;;0.20;;
14096;SDS011;7125;48.106;11.544;2023-04-24T08:13:22;1.53;;;0.40;;
14096;SDS011;7125;48.106;11.544;2023-04-24T08:15:49;0.27;;;0.10;;
14096;SDS011;7125;48.106;11.544;2023-04-24T08:18:16;0.93;;;0.47;;
14096;SDS011;7125;48.106;11.544;2023-04-24T08:20:44;0.57;;;0.20;;
14096;SDS011;7125;48.106;11.544;2023-04-24T08:23:11;1.57;;;0.20;;
14096;SDS011;7125;48.106;11.544;2023-04-24T08:25:38;2.63;;;0.30;;
14096;SDS011;7125;48.106;11.544;2023-04-24T08:28:06;0.50;;;0.50;;
14096;SDS011;7125;48.106;11.544;2023-04-24T08:30:34;0.70;;;0.30;;
14096;SDS011;7125;48.106;11.544;2023-04-24T08:33:02;0.20;;;0.20;;
14096;SDS011;7125;48.106;11.544;2023-04-24T08:35:28;1.07;;;0.50;;
14096;SDS011;7125;48.106;11.544;2023-04-24T08:37:57;0.50;;;0.20;;
14096;SDS011;7125;48.106;11.544;2023-04-24T08:40:26;0.50;;;0.10;;
14096;SDS011;7125;48.106;11.544;2023-04-24T08:42:55;0.40;;;0.30;;
14096;SDS011;7125;48.106;11.544;2023-04-24T08:45:22;1.30;;;0.47;;
14096;SDS011;7125;48.106;11.544;2023-04-24T08:47:51;0.60;;;0.50;;
14096;SDS011;7125;48.106;11.544;2023-04-24T08:50:19;0.90;;;0.50;;
14096;SDS011;7125;48.106;11.544;2023-04-24T08:52:46;1.07;;;0.60;;
14096;SDS011;7125;48.106;11.544;2023-04-24T08:55:17;1.13;;;0.73;;
14096;SDS011;7125;48.106;11.544;2023-04-24T08:57:45;0.80;;;0.53;;
14096;SDS011;7125;48.106;11.544;2023-04-24T09:00:17;0.53;;;0.53;;
14096;SDS011;7125;48.106;11.544;2023-04-24T09:02:45;2.23;;;0.80;;
14096;SDS011;7125;48.106;11.544;2023-04-24T09:05:15;2.20;;;0.60;;
14096;SDS011;7125;48.106;11.544;2023-04-24T09:07:44;1.07;;;0.60;;
14096;SDS011;7125;48.106;11.544;2023-04-24T09:10:16;1.30;;;0.63;;
14096;SDS011;7125;48.106;11.544;2023-04-24T09:12:43;1.70;;;0.47;;
14096;SDS011;7125;48.106;11.544;2023-04-24T09:15:11;2.10;;;0.60;;
14096;SDS011;7125;48.106;11.544;2023-04-24T09:17:38;0.63;;;0.60;;
14096;SDS011;7125;48.106;11.544;2023-04-24T09:20:05;0.80;;;0.50;;
14096;SDS011;7125;48.106;11.544;2023-04-24T09:22:33;0.40;;;0.40;;
14096;SDS011;7125;48.106;11.544;2023-04-24T09:25:02;2.30;;;0.70;;
14096;SDS011;7125;48.106;11.544;2023-04-24T09:27:32;1.70;;;0.70;;
14096;SDS011;7125;48.106;11.544;2023-04-24T09:29:59;0.87;;;0.80;;
14096;SDS011;7125;48.106;11.544;2023-04-24T09:32:27;3.30;;;0.87;;
14096;SDS011;7125;48.106;11.544;2023-04-24T09:35:04;1.13;;;0.77;;
14096;SDS011;7125;48.106;11.544;2023-04-24T09:37:36;0.50;;;0.50;;
14096;SDS011;7125;48.106;11.544;2023-04-24T09:40:08;0.50;;;0.50;;
14096;SDS011;7125;48.106;11.544;2023-04-24T09:42:38;0.80;;;0.60;;
14096;SDS011;7125;48.106;11.544;2023-04-24T09:45:08;1.93;;;0.90;;
14096;SDS011;7125;48.106;11.544;2023-04-24T09:47:36;0.80;;;0.60;;
14096;SDS011;7125;48.106;11.544;2023-04-24T09:50:12;1.07;;;0.60;;
14096;SDS011;7125;48.106;11.544;2023-04-24T09:52:41;3.43;;;1.60;;
14096;SDS011;7125;48.106;11.544;2023-04-24T09:55:16;1.37;;;0.80;;
14096;SDS011;7125;48.106;11.544;2023-04-24T09:57:50;0.87;;;0.80;;
14096;SDS011;7125;48.106;11.544;2023-04-24T10:00:23;1.13;;;0.80;;
14096;SDS011;7125;48.106;11.544;2023-04-24T10:02:55;0.83;;;0.83;;
14096;SDS011;7125;48.106;11.544;2023-04-24T10:05:24;0.50;;;0.50;;
14096;SDS011;7125;48.106;11.544;2023-04-24T10:07:56;1.03;;;0.70;;
14096;SDS011;7125;48.106;11.544;2023-04-24T10:10:23;1.03;;;0.70;;
14096;SDS011;7125;48.106;11.544;2023-04-24T10:12:52;0.73;;;0.60;;
14096;SDS011;7125;48.106;11.544;2023-04-24T10:15:19;0.83;;;0.83;;
14096;SDS011;7125;48.106;11.544;2023-04-24T10:17:47;0.90;;;0.80;;
14096;SDS011;7125;48.106;11.544;2023-04-24T10:20:17;0.73;;;0.70;;
14096;SDS011;7125;48.106;11.544;2023-04-24T10:22:47;1.27;;;0.80;;
14096;SDS011;7125;48.106;11.544;2023-04-24T10:25:28;1.53;;;0.63;;
14096;SDS011;7125;48.106;11.544;2023-04-24T10:28:00;3.80;;;0.80;;
14096;SDS011;7125;48.106;11.544;2023-04-24T10:30:29;1.40;;;0.67;;
14096;SDS011;7125;48.106;11.544;2023-04-24T10:33:04;1.03;;;0.90;;
14096;SDS011;7125;48.106;11.544;2023-04-24T10:35:32;0.83;;;0.80;;
14096;SDS011;7125;48.106;11.544;2023-04-24T10:38:02;4.40;;;0.90;;
14096;SDS011;7125;48.106;11.544;2023-04-24T10:40:34;2.63;;;1.13;;
14096;SDS011;7125;48.106;11.544;2023-04-24T10:43:03;0.70;;;0.70;;
14096;SDS011;7125;48.106;11.544;2023-04-24T10:45:33;2.17;;;1.20;;
14096;SDS011;7125;48.106;11.544;2023-04-24T10:48:01;1.17;;;0.80;;
14096;SDS011;7125;48.106;11.544;2023-04-24T10:50:29;1.90;;;1.03;;
14096;SDS011;7125;48.106;11.544;2023-04-24T10:53:11;0.57;;;0.40;;
14096;SDS011;7125;48.106;11.544;2023-04-24T10:55:40;0.57;;;0.53;;
14096;SDS011;7125;48.106;11.544;2023-04-24T10:58:16;0.20;;;0.20;;
14096;SDS011;7125;48.106;11.544;2023-04-24T11:00:55;0.80;;;0.50;;
14096;SDS011;7125;48.106;11.544;2023-04-24T11:03:24;0.80;;;0.60;;
14096;SDS011;7125;48.106;11.544;2023-04-24T11:05:55;0.40;;;0.40;;
14096;SDS011;7125;48.106;11.544;2023-04-24T11:08:27;0.70;;;0.50;;
14096;SDS011;7125;48.106;11.544;2023-04-24T11:11:03;0.57;;;0.57;;
14096;SDS011;7125;48.106;11.544;2023-04-24T11:16:35;0.60;;;0.50;;
14096;SDS011;7125;48.106;11.544;2023-04-24T11:19:05;0.40;;;0.33;;
14096;SDS011;7125;48.106;11.544;2023-04-24T11:21:42;0.50;;;0.50;;
14096;SDS011;7125;48.106;11.544;2023-04-24T11:26:57;0.50;;;0.50;;
14096;SDS011;7125;48.106;11.544;2023-04-24T11:29:41;1.53;;;0.50;;
14096;SDS011;7125;48.106;11.544;2023-04-24T11:32:23;0.93;;;0.57;;
14096;SDS011;7125;48.106;11.544;2023-04-24T11:34:52;0.60;;;0.50;;
14096;SDS011;7125;48.106;11.544;2023-04-24T11:37:22;2.67;;;0.77;;
14096;SDS011;7125;48.106;11.544;2023-04-24T11:39:51;1.05;;;0.70;;
14096;SDS011;7125;48.106;11.544;2023-04-24T11:42:18;0.55;;;0.55;;
14096;SDS011;7125;48.106;11.544;2023-04-24T11:44:48;0.38;;;0.38;;
14096;SDS011;7125;48.106;11.544;2023-04-24T11:47:15;5.75;;;0.95;;
14096;SDS011;7125;48.106;11.544;2023-04-24T11:49:42;1.15;;;0.88;;
14096;SDS011;7125;48.106;11.544;2023-04-24T11:52:10;2.35;;;0.90;;
14096;SDS011;7125;48.106;11.544;2023-04-24T11:54:37;1.23;;;0.80;;
14096;SDS011;7125;48.106;11.544;2023-04-24T11:57:04;0.98;;;0.80;;
14096;SDS011;7125;48.106;11.544;2023-04-24T11:59:35;2.50;;;0.70;;
14096;SDS011;7125;48.106;11.544;2023-04-24T12:02:05;1.30;;;0.77;;
14096;SDS011;7125;48.106;11.544;2023-04-24T12:04:39;1.97;;;0.60;;
14096;SDS011;7125;48.106;11.544;2023-04-24T12:07:06;3.93;;;0.60;;
14096;SDS011;7125;48.106;11.544;2023-04-24T12:09:41;1.90;;;0.93;;
14096;SDS011;7125;48.106;11.544;2023-04-24T12:12:08;0.53;;;0.50;;
14096;SDS011;7125;48.106;11.544;2023-04-24T12:14:41;1.37;;;0.80;;
14096;SDS011;7125;48.106;11.544;2023-04-24T12:17:17;1.20;;;1.00;;
14096;SDS011;7125;48.106;11.544;2023-04-24T12:19:47;1.77;;;1.40;;
14096;SDS011;7125;48.106;11.544;2023-04-24T12:22:15;2.47;;;1.23;;
14096;SDS011;7125;48.106;11.544;2023-04-24T12:24:56;1.83;;;1.20;;
14096;SDS011;7125;48.106;11.544;2023-04-24T12:27:28;3.33;;;1.30;;
14096;SDS011;7125;48.106;11.544;2023-04-24T12:29:56;3.10;;;1.10;;
14096;SDS011;7125;48.106;11.544;2023-04-24T12:32:25;2.97;;;1.07;;
14096;SDS011;7125;48.106;11.544;2023-04-24T12:34:53;1.70;;;0.80;;
14096;SDS011;7125;48.106;11.544;2023-04-24T12:37:22;2.23;;;0.87;;
14096;SDS011;7125;48.106;11.544;2023-04-24T12:40:00;2.63;;;0.70;;
14096;SDS011;7125;48.106;11.544;2023-04-24T12:42:28;1.48;;;1.05;;
14096;SDS011;7125;48.106;11.544;2023-04-24T12:44:57;1.50;;;0.70;;
14096;SDS011;7125;48.106;11.544;2023-04-24T12:47:27;2.53;;;1.10;;
14096;SDS011;7125;48.106;11.544;2023-04-24T12:49:54;1.20;;;0.83;;
14096;SDS011;7125;48.106;11.544;2023-04-24T12:52:21;2.50;;;1.17;;
14096;SDS011;7125;48.106;11.544;2023-04-24T12:54:49;0.97;;;0.90;;
14096;SDS011;7125;48.106;11.544;2023-04-24T12:57:16;5.10;;;1.20;;
14096;SDS011;7125;48.106;11.544;2023-04-24T12:59:44;2.88;;;1.25;;
14096;SDS011;7125;48.106;11.544;2023-04-24T13:02:11;1.17;;;0.80;;
14096;SDS011;7125;48.106;11.544;2023-04-24T13:04:40;1.77;;;1.35;;
14096;SDS011;7125;48.106;11.544;2023-04-24T13:07:07;9.38;;;0.98;;
14096;SDS011;7125;48.106;11.544;2023-04-24T13:09:34;2.35;;;0.85;;
14096;SDS011;7125;48.106;11.544;2023-04-24T13:12:02;1.27;;;0.95;;
14096;SDS011;7125;48.106;11.544;2023-04-24T13:14:30;1.30;;;0.90;;
14096;SDS011;7125;48.106;11.544;2023-04-24T13:16:57;3.22;;;1.02;;
14096;SDS011;7125;48.106;11.544;2023-04-24T13:19:24;1.40;;;1.00;;
14096;SDS011;7125;48.106;11.544;2023-04-24T13:21:54;2.97;;;1.08;;
14096;SDS011;7125;48.106;11.544;2023-04-24T13:24:22;3.40;;;1.50;;
14096;SDS011;7125;48.106;11.544;2023-04-24T13:26:50;2.83;;;1.42;;
14096;SDS011;7125;48.106;11.544;2023-04-24T13:29:17;2.80;;;1.10;;
14096;SDS011;7125;48.106;11.544;2023-04-24T13:31:44;1.03;;;0.90;;
14096;SDS011;7125;48.106;11.544;2023-04-24T13:34:11;1.10;;;0.73;;
14096;SDS011;7125;48.106;11.544;2023-04-24T13:36:38;1.13;;;1.00;;
14096;SDS011;7125;48.106;11.544;2023-04-24T13:39:06;2.87;;;1.60;;
14096;SDS011;7125;48.106;11.544;2023-04-24T13:41:33;2.03;;;1.07;;
14096;SDS011;7125;48.106;11.544;2023-04-24T13:44:01;1.67;;;1.00;;
14096;SDS011;7125;48.106;11.544;2023-04-24T13:46:28;0.60;;;0.60;;
14096;SDS011;7125;48.106;11.544;2023-04-24T13:48:55;3.10;;;1.23;;
14096;SDS011;7125;48.106;11.544;2023-04-24T13:51:23;3.57;;;1.50;;
14096;SDS011;7125;48.106;11.544;2023-04-24T13:53:52;2.90;;;1.40;;
14096;SDS011;7125;48.106;11.544;2023-04-24T13:56:20;2.95;;;1.00;;
14096;SDS011;7125;48.106;11.544;2023-04-24T13:58:48;5.03;;;1.23;;
14096;SDS011;7125;48.106;11.544;2023-04-24T14:01:15;1.00;;;1.00;;
14096;SDS011;7125;48.106;11.544;2023-04-24T14:03:42;3.30;;;1.10;;
14096;SDS011;7125;48.106;11.544;2023-04-24T14:06:09;4.00;;;1.20;;
14096;SDS011;7125;48.106;11.544;2023-04-24T14:08:36;2.87;;;1.00;;
14096;SDS011;7125;48.106;11.544;2023-04-24T14:11:03;2.40;;;1.17;;
14096;SDS011;7125;48.106;11.544;2023-04-24T14:13:32;1.60;;;1.37;;
14096;SDS011;7125;48.106;11.544;2023-04-24T14:15:59;4.25;;;0.98;;
14096;SDS011;7125;48.106;11.544;2023-04-24T14:18:27;1.83;;;1.05;;
14096;SDS011;7125;48.106;11.544;2023-04-24T14:20:55;1.48;;;1.05;;
14096;SDS011;7125;48.106;11.544;2023-04-24T14:23:22;1.17;;;0.90;;
14096;SDS011;7125;48.106;11.544;2023-04-24T14:25:49;5.60;;;1.25;;
14096;SDS011;7125;48.106;11.544;2023-04-24T14:28:17;3.05;;;1.10;;
14096;SDS011;7125;48.106;11.544;2023-04-24T14:30:46;4.00;;;0.68;;
14096;SDS011;7125;48.106;11.544;2023-04-24T14:33:17;3.45;;;0.98;;
14096;SDS011;7125;48.106;11.544;2023-04-24T14:35:46;2.83;;;1.70;;
14096;SDS011;7125;48.106;11.544;2023-04-24T14:38:15;1.65;;;1.10;;
14096;SDS011;7125;48.106;11.544;2023-04-24T14:40:43;1.15;;;1.05;;
14096;SDS011;7125;48.106;11.544;2023-04-24T14:43:10;2.08;;;1.33;;
14096;SDS011;7125;48.106;11.544;2023-04-24T14:45:42;1.67;;;1.00;;
14096;SDS011;7125;48.106;11.544;2023-04-24T14:48:11;1.23;;;1.00;;
14096;SDS011;7125;48.106;11.544;2023-04-24T14:50:40;2.45;;;0.95;;
14096;SDS011;7125;48.106;11.544;2023-04-24T14:55:44;1.27;;;1.10;;
14096;SDS011;7125;48.106;11.544;2023-04-24T14:58:16;1.42;;;1.13;;
14096;SDS011;7125;48.106;11.544;2023-04-24T15:00:50;7.10;;;1.30;;
14096;SDS011;7125;48.106;11.544;2023-04-24T15:03:23;1.93;;;0.90;;
14096;SDS011;7125;48.106;11.544;2023-04-24T15:05:52;2.47;;;1.63;;
14096;SDS011;7125;48.106;11.544;2023-04-24T15:08:23;3.42;;;1.00;;
14096;SDS011;7125;48.106;11.544;2023-04-24T15:10:51;2.83;;;0.93;;